Time;durP1;ratioP1;P1;durP2;ratioP2;P2;SDS_P1;SDS_P2;PMS_P1;PMS_P2;Temp;Humidity;BMP_temperature;BMP_pressure;BME280_temperature;BME280_humidity;BME280_pressure;Samples;Min_cycle;Max_cycle;Signal;HPM_P1;HPM_P2
2023/01/13 00:00:53;;;;;;;7.38;5.00;;;;;;;7.62;100.00;99070.53;5073669;28;20025;-78
2023/01/13 00:03:19;;;;;;;6.88;5.10;;;;;;;7.68;100.00;99079.81;5073421;28;20020;-78
2023/01/13 00:05:44;;;;;;;6.45;4.15;;;;;;;7.62;100.00;99074.88;5073476;28;20421;-78
2023/01/13 00:08:10;;;;;;;7.95;4.30;;;;;;;7.58;100.00;99071.56;5073858;28;20055;-78
2023/01/13 00:10:37;;;;;;;10.27;5.13;;;;;;;7.65;100.00;99082.53;5073510;28;20448;-78
2023/01/13 00:13:03;;;;;;;9.85;6.07;;;;;;;7.56;100.00;99057.88;5073639;28;20080;-78
2023/01/13 00:15:29;;;;;;;8.57;5.00;;;;;;;7.59;100.00;99060.31;5073118;28;20082;-78
2023/01/13 00:17:54;;;;;;;8.02;5.20;;;;;;;7.56;100.00;99063.03;5073158;28;20021;-78
2023/01/13 00:20:20;;;;;;;9.82;5.80;;;;;;;7.62;100.00;99075.72;5071550;28;20518;-78
2023/01/13 00:22:45;;;;;;;13.25;6.82;;;;;;;7.52;100.00;99050.28;5073122;28;20055;-78
2023/01/13 00:25:11;;;;;;;10.80;5.45;;;;;;;7.61;100.00;99063.69;5073049;28;20088;-78
2023/01/13 00:27:36;;;;;;;8.80;5.85;;;;;;;7.55;100.00;99056.19;5073205;28;20021;-78
2023/01/13 00:30:02;;;;;;;10.93;5.28;;;;;;;7.53;100.00;99050.22;5073017;28;20460;-78
2023/01/13 00:32:28;;;;;;;9.00;5.20;;;;;;;7.55;100.00;99044.97;5072833;28;20020;-78
2023/01/13 00:34:54;;;;;;;8.10;5.55;;;;;;;7.57;100.00;99048.34;5072808;28;20020;-78
2023/01/13 00:37:20;;;;;;;9.10;5.85;;;;;;;7.58;100.00;99050.00;5071852;28;20123;-78
2023/01/13 00:39:45;;;;;;;7.57;4.88;;;;;;;7.63;100.00;99050.69;5072786;28;20073;-78
2023/01/13 00:44:54;;;;;;;7.28;4.32;;;;;;;7.63;100.00;99053.25;5072922;28;20024;-78
2023/01/13 00:47:20;;;;;;;8.13;4.47;;;;;;;7.57;100.00;99045.75;5072300;28;20214;-78
2023/01/13 00:49:45;;;;;;;7.22;5.00;;;;;;;7.56;100.00;99042.31;5072969;28;20060;-78
2023/01/13 00:52:11;;;;;;;7.18;4.65;;;;;;;7.56;100.00;99042.31;5072769;28;20024;-78
2023/01/13 00:54:37;;;;;;;6.05;3.80;;;;;;;7.54;100.00;99048.47;5072671;28;20104;-78
2023/01/13 00:57:03;;;;;;;6.43;3.63;;;;;;;7.54;100.00;99049.28;5072443;28;20024;-78
2023/01/13 00:59:29;;;;;;;5.15;3.17;;;;;;;7.55;100.00;99043.22;5072243;28;20024;-78
2023/01/13 01:01:54;;;;;;;9.10;4.60;;;;;;;7.59;100.00;99052.56;5072298;28;20032;-78
2023/01/13 01:04:19;;;;;;;5.60;3.92;;;;;;;7.56;100.00;99047.50;5072062;28;20024;-78
2023/01/13 01:06:45;;;;;;;5.88;4.40;;;;;;;7.58;100.00;99043.06;5072359;28;20082;-78
2023/01/13 01:09:14;;;;;;;7.35;3.78;;;;;;;7.56;100.00;99041.47;5072010;28;20039;-78
2023/01/13 01:11:40;;;;;;;6.25;4.00;;;;;;;7.53;100.00;99034.66;5072342;28;20098;-78
2023/01/13 01:14:06;;;;;;;5.90;4.05;;;;;;;7.58;100.00;99040.47;5072366;28;20103;-78
2023/01/13 01:16:32;;;;;;;5.32;3.80;;;;;;;7.56;100.00;99033.69;5071862;28;20060;-78
2023/01/13 01:18:59;;;;;;;6.30;4.22;;;;;;;7.53;100.00;99023.47;5072388;28;20413;-78
2023/01/13 01:21:26;;;;;;;5.10;3.80;;;;;;;7.53;100.00;99031.25;5071985;28;20456;-78
2023/01/13 01:23:52;;;;;;;6.78;3.55;;;;;;;7.56;100.00;99034.53;5072204;28;20525;-78
2023/01/13 01:26:21;;;;;;;5.53;4.05;;;;;;;7.56;100.00;99031.09;5071863;28;20033;-78
2023/01/13 01:28:47;;;;;;;5.53;3.75;;;;;;;7.56;100.00;99029.34;5072128;28;20047;-78
2023/01/13 01:31:19;;;;;;;8.10;4.72;;;;;;;7.49;100.00;99015.81;5072242;28;20448;-78
2023/01/13 01:33:47;;;;;;;7.10;3.95;;;;;;;7.58;100.00;99026.69;5072190;28;20020;-79
2023/01/13 01:36:15;;;;;;;11.80;5.22;;;;;;;7.57;100.00;99012.06;5072006;28;20049;-78
2023/01/13 01:38:40;;;;;;;7.93;4.47;;;;;;;7.46;100.00;98991.81;5071976;28;20016;-78
2023/01/13 01:41:06;;;;;;;6.75;4.03;;;;;;;7.59;100.00;99007.66;5072097;28;20025;-78
2023/01/13 01:43:58;;;;;;;7.28;4.13;;;;;;;7.57;100.00;98993.91;5071618;28;20017;-78
2023/01/13 01:46:26;;;;;;;6.97;4.38;;;;;;;7.55;100.00;98995.75;5071881;28;20406;-78
2023/01/13 01:48:53;;;;;;;7.13;4.10;;;;;;;7.54;100.00;98989.69;5071599;28;20375;-76
2023/01/13 01:51:18;;;;;;;7.45;5.18;;;;;;;7.49;100.00;98973.53;5072053;28;20441;-76
2023/01/13 01:53:46;;;;;;;9.77;4.93;;;;;;;7.57;100.00;98983.53;5071720;28;20020;-76
2023/01/13 01:56:12;;;;;;;7.93;5.28;;;;;;;7.55;100.00;98983.63;5071470;28;20108;-76
2023/01/13 01:58:46;;;;;;;6.55;5.03;;;;;;;7.50;100.00;98985.59;5071680;28;20556;-76
2023/01/13 02:01:12;;;;;;;7.40;4.38;;;;;;;7.54;100.00;98978.50;5071768;28;20029;-76
2023/01/13 02:03:42;;;;;;;6.93;4.18;;;;;;;7.59;100.00;98977.41;5071397;28;20021;-76
2023/01/13 02:06:08;;;;;;;7.53;4.47;;;;;;;7.54;100.00;98973.31;5071682;28;20055;-76
2023/01/13 02:08:34;;;;;;;7.25;4.38;;;;;;;7.61;100.00;98977.31;5071320;28;20060;-76
2023/01/13 02:10:59;;;;;;;6.72;4.35;;;;;;;7.57;100.00;98960.22;5071841;28;20020;-76
2023/01/13 02:13:25;;;;;;;10.23;6.25;;;;;;;7.57;100.00;98963.66;5071797;28;20028;-76
2023/01/13 02:16:09;;;;;;;11.55;7.32;;;;;;;7.64;100.00;98972.00;5071910;28;20029;-76
2023/01/13 02:18:52;;;;;;;9.60;6.18;;;;;;;7.66;100.00;98968.41;5071433;28;20025;-76
2023/01/13 02:21:36;;;;;;;6.15;4.22;;;;;;;7.67;100.00;98974.47;5071255;28;20021;-76
2023/01/13 02:27:04;;;;;;;4.55;3.42;;;;;;;7.68;100.00;98971.78;5071753;28;20035;-76
2023/01/13 02:33:16;;;;;;;7.10;3.58;;;;;;;7.70;100.00;98975.13;5071779;28;20158;-76
2023/01/13 02:36:23;;;;;;;4.80;3.47;;;;;;;7.71;100.00;98986.34;5071322;28;20127;-76
2023/01/13 02:38:48;;;;;;;6.35;4.13;;;;;;;7.68;100.00;98976.13;5069362;28;20468;-76
2023/01/13 02:44:17;;;;;;;6.68;3.95;;;;;;;7.73;100.00;98979.34;5009241;28;20493;-76
2023/01/13 02:46:51;;;;;;;5.78;3.90;;;;;;;7.71;100.00;98971.66;5009063;28;20120;-76
2023/01/13 02:49:43;;;;;;;8.07;3.70;;;;;;;7.75;100.00;98972.34;5009030;28;20034;-76
2023/01/13 02:52:17;;;;;;;5.65;3.80;;;;;;;7.69;100.00;98962.25;4950933;29;20443;-76
2023/01/13 02:54:50;;;;;;;8.60;4.20;;;;;;;7.75;100.00;98983.56;4950785;29;20522;-76
2023/01/13 02:57:18;;;;;;;9.45;4.75;;;;;;;7.71;100.00;98974.25;4950751;29;20038;-76
2023/01/13 02:59:44;;;;;;;7.93;4.43;;;;;;;7.70;100.00;98976.91;4951012;28;20059;-76
2023/01/13 03:02:13;;;;;;;10.32;4.88;;;;;;;7.75;100.00;98980.09;4954122;29;20479;-76
2023/01/13 03:05:05;;;;;;;7.60;4.43;;;;;;;7.74;100.00;98976.69;4953956;29;20348;-76
2023/01/13 03:07:40;;;;;;;12.95;4.88;;;;;;;7.72;100.00;98968.16;4896795;29;20037;-76
2023/01/13 03:10:24;;;;;;;5.88;4.22;;;;;;;7.73;100.00;98966.41;4897124;29;20041;-76
2023/01/13 03:13:00;;;;;;;7.70;4.45;;;;;;;7.64;100.00;98961.63;4897113;29;20041;-76
2023/01/13 03:16:03;;;;;;;6.80;4.13;;;;;;;7.67;100.00;98975.31;4896708;29;20075;-76
2023/01/13 03:18:41;;;;;;;8.02;4.47;;;;;;;7.66;100.00;98972.75;4896736;29;20070;-76
2023/01/13 03:21:25;;;;;;;6.72;3.88;;;;;;;7.64;100.00;98967.66;4914600;29;20047;-76
2023/01/13 03:23:54;;;;;;;7.30;4.30;;;;;;;7.63;100.00;98954.78;4934728;29;20383;-76
2023/01/13 03:26:46;;;;;;;9.15;4.78;;;;;;;7.55;100.00;98949.94;4934438;29;20028;-76
2023/01/13 03:29:20;;;;;;;8.60;5.57;;;;;;;7.52;100.00;98947.47;4927713;29;20072;-76
2023/01/13 03:32:01;;;;;;;8.15;4.78;;;;;;;7.58;100.00;98965.31;4953648;29;20035;-76
2023/01/13 03:34:31;;;;;;;;;;;;;;;7.56;100.00;98964.56;4953955;29;20507;-76
2023/01/13 03:36:59;;;;;;;6.75;4.03;;;;;;;7.53;100.00;98956.09;4953394;29;19918;-76
2023/01/13 03:39:31;;;;;;;8.75;4.30;;;;;;;7.54;100.00;98957.75;4953304;29;20023;-77
2023/01/13 03:42:03;;;;;;;9.48;4.45;;;;;;;7.51;100.00;98953.56;4953432;29;20224;-76
2023/01/13 03:44:41;;;;;;;6.68;4.20;;;;;;;7.48;100.00;98951.13;4996738;28;20037;-77
2023/01/13 03:47:16;;;;;;;6.78;4.07;;;;;;;7.52;100.00;98965.63;5031509;28;20049;-77
2023/01/13 03:49:42;;;;;;;6.75;4.20;;;;;;;7.49;100.00;98951.03;5031467;28;20162;-76
2023/01/13 03:52:10;;;;;;;8.35;4.63;;;;;;;7.48;100.00;98951.13;5031539;28;20061;-77
2023/01/13 03:54:44;;;;;;;5.28;3.88;;;;;;;7.49;100.00;98953.63;5031103;28;20508;-77
2023/01/13 03:57:12;;;;;;;5.25;3.75;;;;;;;7.45;100.00;98943.47;5031300;28;20025;-77
2023/01/13 03:59:41;;;;;;;5.93;3.75;;;;;;;7.50;100.00;98944.13;5031044;28;20120;-77
2023/01/13 04:02:13;;;;;;;5.43;3.55;;;;;;;7.49;100.00;98947.59;5031302;28;20104;-77
2023/01/13 04:04:47;;;;;;;4.63;3.05;;;;;;;7.47;100.00;98946.84;5031022;28;20033;-77
2023/01/13 04:07:38;;;;;;;4.95;3.35;;;;;;;7.49;100.00;98945.84;5070275;28;20036;-77
2023/01/13 04:10:05;;;;;;;;;;;;;;;7.49;100.00;98951.03;5073998;28;20017;-76
2023/01/13 04:15:26;;;;;;;5.07;2.90;;;;;;;7.48;100.00;98941.59;5073423;28;20398;-77
2023/01/13 04:17:52;;;;;;;4.78;2.80;;;;;;;7.36;100.00;98921.41;5073157;28;20066;-77
2023/01/13 04:20:17;;;;;;;4.32;3.00;;;;;;;7.47;100.00;98939.91;5073424;28;20075;-76
2023/01/13 04:22:43;;;;;;;4.57;3.25;;;;;;;7.41;100.00;98924.63;5073294;28;20499;-77
2023/01/13 04:25:09;;;;;;;5.35;3.10;;;;;;;7.44;100.00;98931.44;5073498;28;20364;-77
2023/01/13 04:27:34;;;;;;;4.38;2.72;;;;;;;7.52;100.00;98944.06;5072936;28;20365;-76
2023/01/13 04:29:59;;;;;;;5.47;3.53;;;;;;;7.53;100.00;98932.78;5073079;28;20029;-77
2023/01/13 04:32:25;;;;;;;6.25;3.42;;;;;;;7.57;100.00;98932.56;5072690;28;20107;-76
2023/01/13 04:34:50;;;;;;;6.32;3.40;;;;;;;7.58;100.00;98930.81;5073256;28;20028;-76
2023/01/13 04:37:16;;;;;;;10.88;4.00;;;;;;;7.59;100.00;98929.91;5071455;28;20127;-77
2023/01/13 04:39:41;;;;;;;4.68;3.10;;;;;;;7.54;100.00;98908.53;5072558;28;20146;-76
2023/01/13 04:42:06;;;;;;;4.00;2.72;;;;;;;7.54;100.00;98906.78;5073199;28;20221;-76
2023/01/13 04:44:34;;;;;;;6.07;2.97;;;;;;;7.55;100.00;98916.25;5072576;28;20094;-76
2023/01/13 04:47:00;;;;;;;4.65;2.97;;;;;;;7.53;100.00;98919.81;5072628;28;20032;-77
2023/01/13 04:49:26;;;;;;;5.50;3.08;;;;;;;7.46;100.00;98911.50;5072578;28;20517;-76
2023/01/13 04:51:51;;;;;;;4.22;2.97;;;;;;;7.49;100.00;98904.41;5072573;28;20028;-76
2023/01/13 04:54:17;;;;;;;4.97;3.35;;;;;;;7.50;100.00;98907.84;5072700;28;20016;-76
2023/01/13 04:56:42;;;;;;;5.57;3.45;;;;;;;7.49;100.00;98908.75;5072216;28;20028;-76
2023/01/13 04:59:09;;;;;;;8.25;3.47;;;;;;;7.48;100.00;98907.91;5072371;28;20021;-77
2023/01/13 05:01:35;;;;;;;4.43;3.40;;;;;;;7.53;100.00;98910.28;5072362;28;20052;-78
2023/01/13 05:04:01;;;;;;;4.30;2.92;;;;;;;7.52;100.00;98910.38;5072548;28;20460;-78
2023/01/13 05:06:26;;;;;;;6.18;3.75;;;;;;;7.51;100.00;98912.13;5072140;28;20025;-78
2023/01/13 05:08:51;;;;;;;5.35;3.63;;;;;;;7.54;100.00;98916.31;5072304;28;20026;-78
2023/01/13 05:17:00;;;;;;;4.60;3.17;;;;;;;7.63;100.00;98915.91;5072134;28;20503;-78
2023/01/13 05:19:31;;;;;;;4.32;3.00;;;;;;;7.60;100.00;98903.91;5072189;28;20074;-78
2023/01/13 05:27:25;;;;;;;4.05;3.10;;;;;;;7.70;100.00;98915.53;5072277;28;20039;-78
2023/01/13 05:29:50;;;;;;;4.60;2.90;;;;;;;7.66;100.00;98910.56;5071840;28;20108;-78
2023/01/13 05:32:15;;;;;;;4.35;2.85;;;;;;;7.72;100.00;98918.91;5072089;28;20099;-78
2023/01/13 05:34:41;;;;;;;5.00;2.53;;;;;;;7.73;100.00;98920.56;5071709;28;20028;-78
2023/01/13 05:37:07;;;;;;;3.97;2.72;;;;;;;7.66;100.00;98910.56;5072053;28;20082;-78
2023/01/13 05:43:18;;;;;;;5.75;2.67;;;;;;;7.71;100.00;98912.03;5072181;28;20017;-78
2023/01/13 05:45:05;;;;;;;5.32;2.75;;;;;;;7.75;100.00;98920.50;5072169;28;20027;-78
2023/01/13 05:47:31;;;;;;;4.40;2.92;;;;;;;7.68;100.00;98908.75;5071595;28;20025;-78
2023/01/13 05:49:56;;;;;;;5.78;2.97;;;;;;;7.69;100.00;98919.03;5072061;28;20024;-78
2023/01/13 05:52:21;;;;;;;3.30;2.60;;;;;;;7.75;100.00;98923.09;5071956;28;20085;-78
2023/01/13 05:54:47;;;;;;;4.88;2.78;;;;;;;7.78;100.00;98932.47;5071844;28;20059;-78
2023/01/13 05:57:12;;;;;;;5.72;3.10;;;;;;;7.74;100.00;98917.06;5070461;28;20056;-78
2023/01/13 05:59:37;;;;;;;5.75;3.13;;;;;;;7.74;100.00;98914.47;5071495;28;20074;-78
2023/01/13 06:02:03;;;;;;;3.33;2.85;;;;;;;7.75;100.00;98923.94;5071702;28;20046;-79
2023/01/13 06:04:28;;;;;;;4.65;2.50;;;;;;;7.75;100.00;98917.91;5071961;28;20099;-78
2023/01/13 06:06:54;;;;;;;3.53;2.67;;;;;;;7.70;100.00;98906.91;5071679;28;20028;-79
2023/01/13 06:09:21;;;;;;;4.93;3.05;;;;;;;7.78;100.00;98919.53;5071757;28;20020;-78
2023/01/13 06:11:47;;;;;;;5.38;3.15;;;;;;;7.72;100.00;98910.28;5071451;28;20025;-78
2023/01/13 06:14:12;;;;;;;5.32;3.10;;;;;;;7.73;100.00;98907.63;5071629;28;20012;-78
2023/01/13 06:16:37;;;;;;;5.47;2.78;;;;;;;7.77;100.00;98918.69;5071268;28;20074;-78
2023/01/13 06:19:07;;;;;;;4.55;2.88;;;;;;;7.70;100.00;98910.34;5071851;28;20066;-78
2023/01/13 06:21:33;;;;;;;3.00;2.43;;;;;;;7.77;100.00;98917.84;5071513;28;20025;-78
2023/01/13 06:23:59;;;;;;;4.00;2.55;;;;;;;7.79;100.00;98919.44;5071636;28;20024;-78
2023/01/13 06:26:27;;;;;;;3.42;2.53;;;;;;;7.74;100.00;98917.06;5071943;28;20413;-78
2023/01/13 06:28:53;;;;;;;4.85;2.80;;;;;;;7.72;100.00;98907.69;5071332;28;20048;-78
2023/01/13 06:31:19;;;;;;;7.40;3.50;;;;;;;7.77;100.00;98910.91;5071933;28;20044;-78
2023/01/13 06:33:49;;;;;;;4.45;2.65;;;;;;;7.81;100.00;98916.78;5071652;28;20348;-78
2023/01/13 06:36:21;;;;;;;4.50;2.92;;;;;;;7.78;100.00;98914.34;5073843;28;20037;-78
2023/01/13 06:38:50;;;;;;;5.60;2.92;;;;;;;7.81;100.00;98916.78;5075002;28;20027;-78
2023/01/13 06:43:13;;;;;;;3.97;2.75;;;;;;;7.80;100.00;98915.13;5075273;28;20024;-78
2023/01/13 06:44:02;;;;;;;5.30;3.00;;;;;;;7.77;100.00;98905.72;5075260;28;20059;-78
2023/01/13 06:46:28;;;;;;;7.07;3.08;;;;;;;7.78;100.00;98902.22;5075257;28;20431;-78
2023/01/13 06:48:53;;;;;;;6.13;4.00;;;;;;;7.72;100.00;98905.09;5074922;28;20017;-78
2023/01/13 06:51:18;;;;;;;8.55;4.95;;;;;;;7.78;100.00;98910.00;5075096;28;20017;-78
2023/01/13 06:53:43;;;;;;;8.07;4.90;;;;;;;7.80;100.00;98913.38;5074550;28;20016;-78
2023/01/13 06:56:09;;;;;;;9.10;4.60;;;;;;;7.77;100.00;98917.84;5073367;28;20104;-78
2023/01/13 06:58:34;;;;;;;7.65;4.63;;;;;;;7.70;100.00;98914.69;5074608;28;20032;-78
2023/01/13 07:01:00;;;;;;;8.23;4.97;;;;;;;7.55;99.68;98908.47;5074945;28;20025;-78
2023/01/13 07:03:25;;;;;;;6.88;3.60;;;;;;;7.58;100.00;98918.69;5074998;28;20024;-78
2023/01/13 07:05:54;;;;;;;4.93;3.38;;;;;;;7.54;100.00;98914.53;5074794;28;20020;-78
2023/01/13 07:08:22;;;;;;;4.35;3.33;;;;;;;7.50;100.00;98916.47;5074743;28;20025;-78
2023/01/13 07:10:47;;;;;;;5.85;3.63;;;;;;;7.41;100.00;98908.25;5074349;28;20021;-78
2023/01/13 07:15:58;;;;;;;5.70;3.75;;;;;;;7.44;100.00;98916.72;5074596;28;20044;-78
2023/01/13 07:18:26;;;;;;;7.15;4.07;;;;;;;7.47;100.00;98910.59;5074378;28;20063;-78
2023/01/13 07:20:56;;;;;;;9.95;6.32;;;;;;;7.44;100.00;98908.13;5074205;28;20028;-78
2023/01/13 07:23:23;;;;;;;9.23;6.18;;;;;;;7.43;100.00;98922.00;5074330;28;20020;-78
2023/01/13 07:25:49;;;;;;;8.48;6.25;;;;;;;7.42;100.00;98915.97;5074299;28;20028;-78
2023/01/13 07:28:14;;;;;;;7.93;5.07;;;;;;;7.45;100.00;98922.75;5074466;28;20025;-78
2023/01/13 07:30:40;;;;;;;8.27;5.47;;;;;;;7.40;100.00;98922.97;5072776;28;20039;-78
2023/01/13 07:33:05;;;;;;;8.38;4.70;;;;;;;7.47;100.00;98926.97;5074168;28;20471;-78
2023/01/13 07:35:30;;;;;;;6.85;3.80;;;;;;;7.49;100.00;98924.28;5074233;28;20383;-78
2023/01/13 07:37:56;;;;;;;7.35;3.42;;;;;;;7.49;100.00;98926.88;5073743;28;20445;-78
2023/01/13 07:40:21;;;;;;;5.15;3.42;;;;;;;7.47;100.00;98931.31;5074271;28;20016;-78
2023/01/13 07:45:30;;;;;;;5.80;3.83;;;;;;;7.46;100.00;98925.28;5073880;28;20498;-78
2023/01/13 07:47:55;;;;;;;8.20;3.75;;;;;;;7.45;100.00;98933.94;5073507;28;20044;-78
2023/01/13 07:50:22;;;;;;;8.30;3.42;;;;;;;7.53;100.00;98935.34;5073852;28;20025;-78
2023/01/13 07:52:48;;;;;;;6.35;3.30;;;;;;;7.58;100.00;98933.38;5073907;28;20020;-78
2023/01/13 07:55:13;;;;;;;7.82;3.80;;;;;;;7.52;100.00;98929.34;5073989;28;20356;-78
2023/01/13 07:57:39;;;;;;;5.45;3.33;;;;;;;7.53;100.00;98938.78;5073572;28;20246;-78
2023/01/13 08:00:04;;;;;;;7.65;3.10;;;;;;;7.61;100.00;98928.91;5073974;28;20375;-78
2023/01/13 08:02:30;;;;;;;5.80;3.85;;;;;;;7.71;100.00;98931.91;5073670;28;20471;-78
2023/01/13 08:04:55;;;;;;;8.63;3.70;;;;;;;7.74;100.00;98926.59;5073301;28;20025;-78
2023/01/13 08:07:20;;;;;;;6.03;3.60;;;;;;;7.67;100.00;98926.06;5074037;28;20028;-78
2023/01/13 08:09:46;;;;;;;8.73;4.22;;;;;;;7.62;100.00;98929.75;5073435;28;20020;-78
2023/01/13 08:14:55;;;;;;;6.20;4.13;;;;;;;7.88;100.00;98931.13;5073421;28;20059;-78
2023/01/13 08:17:20;;;;;;;5.03;3.78;;;;;;;7.91;100.00;98933.59;5073631;28;20332;-78
2023/01/13 08:19:46;;;;;;;6.65;3.67;;;;;;;7.83;100.00;98931.34;5073322;28;20077;-78
2023/01/13 08:22:11;;;;;;;4.25;3.40;;;;;;;7.88;100.00;98937.19;5073453;28;20444;-78
2023/01/13 08:24:36;;;;;;;4.57;3.03;;;;;;;7.92;100.00;98930.06;5073248;28;20025;-78
2023/01/13 08:27:02;;;;;;;6.82;3.78;;;;;;;8.00;100.00;98931.38;5071505;28;20344;-78
2023/01/13 08:29:27;;;;;;;4.95;2.92;;;;;;;8.00;100.00;98930.56;5073468;28;20505;-78
2023/01/13 08:31:52;;;;;;;6.80;3.47;;;;;;;7.90;99.42;98937.09;5072845;28;20095;-78
2023/01/13 08:34:18;;;;;;;5.22;3.15;;;;;;;7.92;100.00;98943.91;5071682;28;20020;-78
2023/01/13 08:36:43;;;;;;;5.10;3.17;;;;;;;7.92;100.00;98936.13;5072650;28;20510;-78
2023/01/13 08:39:08;;;;;;;5.40;3.60;;;;;;;7.94;100.00;98944.66;5073087;28;20456;-78
2023/01/13 08:44:17;;;;;;;6.70;3.30;;;;;;;7.93;100.00;98952.50;5072809;28;20162;-78
2023/01/13 08:46:43;;;;;;;6.53;3.00;;;;;;;7.98;100.00;98933.22;5072494;28;20120;-78
2023/01/13 08:49:08;;;;;;;18.23;9.02;;;;;;;8.12;100.00;98944.69;5072924;28;20121;-78
2023/01/13 08:51:34;;;;;;;8.32;5.65;;;;;;;8.23;100.00;98945.88;5072861;28;20020;-78
2023/01/13 08:53:59;;;;;;;10.90;6.75;;;;;;;8.24;99.42;98946.69;5072367;28;20059;-78
2023/01/13 08:56:24;;;;;;;20.13;14.27;;;;;;;8.08;98.54;98938.81;5072529;28;20448;-78
2023/01/13 08:58:51;;;;;;;12.52;8.15;;;;;;;8.10;99.26;98951.72;5071823;28;20024;-78
2023/01/13 09:01:21;;;;;;;10.18;6.07;;;;;;;8.16;100.00;98949.66;5072727;28;20032;-78
2023/01/13 09:03:46;;;;;;;8.70;6.45;;;;;;;8.25;100.00;98957.00;5072430;28;20017;-78
2023/01/13 09:06:12;;;;;;;8.65;7.35;;;;;;;8.32;99.62;98954.94;5072534;28;20024;-78
2023/01/13 09:08:37;;;;;;;7.45;5.70;;;;;;;8.42;99.56;98960.56;5072502;28;20029;-78
2023/01/13 09:13:10;;;;;;;8.60;6.00;;;;;;;8.43;99.38;98950.13;5072264;28;20047;-78
2023/01/13 09:13:49;;;;;;;7.03;4.80;;;;;;;8.39;98.54;98956.38;5072044;28;20072;-78
2023/01/13 09:16:14;;;;;;;8.30;5.82;;;;;;;8.40;98.82;98976.22;5072390;28;20059;-78
2023/01/13 09:18:39;;;;;;;8.90;5.93;;;;;;;8.37;98.98;98960.78;5072208;28;20026;-77
2023/01/13 09:21:05;;;;;;;13.15;8.82;;;;;;;8.38;99.00;98949.47;5072289;28;20020;-78
2023/01/13 09:23:30;;;;;;;8.52;5.20;;;;;;;8.50;98.65;98961.88;5072189;28;20020;-78
2023/01/13 09:25:55;;;;;;;18.83;12.70;;;;;;;8.41;97.63;98953.69;5071888;28;20074;-78
2023/01/13 09:28:21;;;;;;;7.05;4.35;;;;;;;8.27;97.48;98958.69;5072061;28;20016;-78
2023/01/13 09:30:46;;;;;;;6.70;4.03;;;;;;;8.30;98.44;98962.00;5072313;28;20364;-78
2023/01/13 09:35:59;;;;;;;6.20;4.30;;;;;;;8.41;98.93;98957.13;5071805;28;20059;-78
2023/01/13 09:38:25;;;;;;;5.85;4.30;;;;;;;8.40;99.00;98950.25;5071885;28;20020;-78
2023/01/13 09:40:50;;;;;;;8.73;4.85;;;;;;;8.49;98.92;98957.59;5071851;28;20341;-78
2023/01/13 09:46:43;;;;;;;13.70;8.00;;;;;;;8.45;98.31;98945.69;5071577;28;20036;-78
2023/01/13 09:49:38;;;;;;;6.32;4.38;;;;;;;8.42;98.88;98950.19;5069347;28;20056;-78
2023/01/13 09:52:14;;;;;;;4.80;3.25;;;;;;;8.47;99.20;98954.25;5069115;28;20028;-78
2023/01/13 09:55:12;;;;;;;6.50;3.85;;;;;;;8.58;99.08;98932.09;5069242;28;20054;-79
2023/01/13 09:57:38;;;;;;;5.60;3.55;;;;;;;8.63;98.45;98943.09;4954368;28;20031;-78
2023/01/13 10:00:21;;;;;;;8.15;5.88;;;;;;;8.60;98.22;98940.66;4970300;28;20046;-78
2023/01/13 10:03:03;;;;;;;13.98;8.07;;;;;;;8.63;99.26;98922.31;4970454;28;20035;-78
2023/01/13 10:05:36;;;;;;;5.95;4.28;;;;;;;8.83;99.36;98922.16;4970908;28;20144;-78
2023/01/13 10:08:14;;;;;;;6.00;4.60;;;;;;;9.06;99.00;98941.78;4970259;28;20049;-78
2023/01/13 10:10:44;;;;;;;9.43;5.60;;;;;;;9.14;98.24;98923.16;4974012;28;20130;-78
2023/01/13 10:13:24;;;;;;;14.47;9.63;;;;;;;9.24;97.75;98925.22;4974587;28;20685;-78
2023/01/13 10:16:22;;;;;;;7.20;4.53;;;;;;;9.23;97.78;98925.31;4974072;28;20043;-78
2023/01/13 10:18:57;;;;;;;8.45;4.32;;;;;;;9.20;97.64;98931.50;4974459;28;20434;-78
2023/01/13 10:21:40;;;;;;;5.40;3.60;;;;;;;9.30;97.69;98929.25;4974276;28;20382;-78
2023/01/13 10:24:40;;;;;;;7.78;4.20;;;;;;;9.36;97.22;98922.91;4974230;28;20062;-78
2023/01/13 10:27:15;;;;;;;6.20;4.25;;;;;;;9.25;96.58;98910.47;4993568;28;20077;-78
2023/01/13 10:29:41;;;;;;;5.60;4.32;;;;;;;9.22;96.21;98915.81;4993945;28;20033;-78
2023/01/13 10:32:06;;;;;;;12.85;9.35;;;;;;;9.20;96.95;98922.84;4993418;28;20466;-78
2023/01/13 10:34:45;;;;;;;9.23;4.68;;;;;;;9.24;97.37;98903.59;5050803;28;20028;-79
2023/01/13 10:37:20;;;;;;;13.88;9.68;;;;;;;9.41;96.85;98907.88;5075040;28;20495;-78
2023/01/13 10:39:48;;;;;;;10.75;9.15;;;;;;;9.53;96.53;98911.59;5075266;28;20078;-78
2023/01/13 10:42:20;;;;;;;10.05;7.43;;;;;;;9.57;96.28;98903.53;5075145;28;20032;-79
2023/01/13 10:44:50;;;;;;;20.00;14.30;;;;;;;9.43;95.53;98895.63;5075012;28;20019;-79
2023/01/13 10:47:23;;;;;;;9.23;6.53;;;;;;;9.35;95.63;98895.22;5074938;28;20024;-79
2023/01/13 10:50:21;;;;;;;8.38;6.57;;;;;;;9.38;96.31;98900.25;5074936;28;20096;-79
2023/01/13 10:53:01;;;;;;;10.32;7.03;;;;;;;9.35;96.12;98890.84;5072541;28;20045;-80
2023/01/13 10:55:29;;;;;;;10.25;7.00;;;;;;;9.46;95.95;98901.50;5072432;28;20027;-80
2023/01/13 10:57:54;;;;;;;12.77;7.80;;;;;;;9.38;95.17;98908.88;5071984;28;20093;-80
2023/01/13 11:00:31;;;;;;;12.00;6.65;;;;;;;9.26;95.20;98906.94;5072244;28;20056;-80
2023/01/13 11:03:19;;;;;;;7.22;4.78;;;;;;;9.20;95.86;98897.72;5072049;28;20040;-80
2023/01/13 11:05:59;;;;;;;10.27;5.43;;;;;;;9.24;96.19;98893.19;5072335;28;20059;-80
2023/01/13 11:08:27;;;;;;;8.95;5.40;;;;;;;9.30;96.22;98894.63;5072253;28;20385;-80
2023/01/13 11:10:56;;;;;;;8.27;6.20;;;;;;;9.21;96.05;98894.19;5071914;28;20045;-80
2023/01/13 11:13:32;;;;;;;10.43;7.88;;;;;;;9.24;96.51;98904.44;5072375;28;20025;-80
2023/01/13 11:16:15;;;;;;;6.95;4.45;;;;;;;9.23;96.43;98897.56;5071872;28;20036;-78
2023/01/13 11:19:10;;;;;;;7.35;6.55;;;;;;;9.27;96.41;98885.25;5071941;28;20027;-78
2023/01/13 11:22:06;;;;;;;6.10;4.18;;;;;;;9.41;95.93;98885.34;5071167;28;20032;-79
2023/01/13 11:25:00;;;;;;;12.13;6.43;;;;;;;9.43;94.99;98880.03;4973185;28;20027;-80
2023/01/13 11:27:45;;;;;;;13.35;7.75;;;;;;;9.45;95.08;98884.25;4915687;29;20044;-80
2023/01/13 11:30:35;;;;;;;20.23;15.90;;;;;;;9.58;95.27;98886.19;4915389;29;20123;-78
2023/01/13 11:33:10;;;;;;;9.93;6.82;;;;;;;9.70;94.47;98888.94;4915470;29;20043;-78
2023/01/13 11:35:44;;;;;;;8.55;6.50;;;;;;;9.65;93.39;98885.78;4915313;29;20044;-78
2023/01/13 11:38:17;;;;;;;10.18;5.18;;;;;;;9.62;93.31;98880.72;4915378;29;20047;-78
2023/01/13 11:40:47;;;;;;;7.53;5.13;;;;;;;9.64;93.88;98881.47;4915575;29;20120;-78
2023/01/13 11:43:24;;;;;;;11.18;7.72;;;;;;;9.79;93.84;98871.16;4915594;29;20031;-78
2023/01/13 11:45:54;;;;;;;10.13;7.07;;;;;;;10.02;93.26;98885.47;4915375;29;20036;-78
2023/01/13 11:48:25;;;;;;;7.88;5.10;;;;;;;9.97;91.87;98883.13;4915458;29;20480;-78
2023/01/13 11:51:01;;;;;;;11.75;7.85;;;;;;;9.86;92.20;98877.69;4915063;29;20047;-78
2023/01/13 11:53:32;;;;;;;8.75;5.90;;;;;;;9.93;92.84;98879.84;4915459;29;20028;-78
2023/01/13 11:56:16;;;;;;;6.80;5.35;;;;;;;9.94;92.15;98867.69;4914834;29;20159;-78
2023/01/13 11:59:21;;;;;;;6.75;4.78;;;;;;;10.07;92.11;98888.63;4915105;29;20076;-78
2023/01/13 12:02:10;;;;;;;7.20;4.63;;;;;;;9.98;91.38;98882.19;4983147;28;20038;-78
2023/01/13 12:04:41;;;;;;;10.40;8.45;;;;;;;9.86;91.27;98883.75;5052165;28;20029;-78
2023/01/13 12:07:17;;;;;;;9.70;8.52;;;;;;;9.80;91.97;98881.47;5073545;28;20029;-78
2023/01/13 12:10:07;;;;;;;13.50;9.63;;;;;;;9.85;92.08;98876.84;5073474;28;20074;-78
2023/01/13 12:12:47;;;;;;;14.77;11.63;;;;;;;9.86;91.93;98878.53;5073319;28;20059;-78
2023/01/13 12:15:29;;;;;;;13.73;12.27;;;;;;;9.72;91.54;98868.88;5070807;28;20498;-78
2023/01/13 12:18:06;;;;;;;14.75;12.18;;;;;;;9.69;91.90;98876.00;5070615;28;20278;-78
2023/01/13 12:20:53;;;;;;;11.15;7.70;;;;;;;9.60;92.46;98855.72;5070813;28;20181;-78
2023/01/13 12:23:31;;;;;;;10.23;9.15;;;;;;;9.78;92.47;98867.72;5070749;28;20035;-79
2023/01/13 12:26:06;;;;;;;12.95;9.88;;;;;;;9.85;92.55;98871.63;5070506;28;20025;-78
2023/01/13 12:28:38;;;;;;;16.05;10.88;;;;;;;9.73;92.06;98865.38;5070702;28;20044;-78
2023/01/13 12:31:06;;;;;;;15.52;9.55;;;;;;;9.70;92.08;98860.34;5070416;28;20044;-78
2023/01/13 12:33:43;;;;;;;16.95;12.70;;;;;;;9.79;92.55;98876.34;5070465;28;20387;-78
2023/01/13 12:36:29;;;;;;;14.77;8.65;;;;;;;9.85;92.30;98863.00;5070222;28;20044;-78